Time;durP1;ratioP1;P1;durP2;ratioP2;P2;SDS_P1;SDS_P2;PMS_P1;PMS_P2;Temp;Humidity;BMP_temperature;BMP_pressure;BME280_temperature;BME280_humidity;BME280_pressure;Samples;Min_cycle;Max_cycle;Signal;HPM_P1;HPM_P2
2022/02/28 00:01:12;;;;;;;12.97;9.77;;;3.50;99.90;;;;;;5026859;28;20200;-75
2022/02/28 00:03:39;;;;;;;12.47;9.83;;;3.40;99.90;;;;;;5056210;28;20213;-75
2022/02/28 00:06:06;;;;;;;13.13;10.07;;;3.50;99.90;;;;;;5015555;28;20801;-76
2022/02/28 00:08:34;;;;;;;13.80;10.47;;;3.50;99.90;;;;;;5009610;28;20241;-75
2022/02/28 00:11:00;;;;;;;13.87;10.07;;;3.50;99.90;;;;;;4994994;28;20294;-75
2022/02/28 00:13:27;;;;;;;11.43;9.73;;;3.50;99.90;;;;;;5015987;28;20239;-76
2022/02/28 00:15:54;;;;;;;13.33;10.00;;;3.50;99.90;;;;;;4989035;28;20202;-75
2022/02/28 00:18:21;;;;;;;13.57;10.23;;;3.60;99.90;;;;;;5025517;28;20717;-77
2022/02/28 00:20:47;;;;;;;11.80;9.80;;;3.50;99.90;;;;;;5076898;28;20210;-77
2022/02/28 00:23:14;;;;;;;14.13;9.67;;;3.50;99.90;;;;;;5024209;28;20302;-77
2022/02/28 00:25:42;;;;;;;14.30;10.40;;;3.50;99.90;;;;;;5023274;28;20206;-78
2022/02/28 00:28:09;;;;;;;10.33;8.47;;;3.50;99.90;;;;;;5011204;28;20217;-78
2022/02/28 00:30:36;;;;;;;8.43;7.50;;;3.50;99.90;;;;;;5012925;28;20251;-82
2022/02/28 00:33:04;;;;;;;9.07;7.73;;;3.40;99.90;;;;;;5005978;28;20222;-83
2022/02/28 00:35:31;;;;;;;8.10;7.30;;;3.30;99.90;;;;;;5017061;28;20206;-83
2022/02/28 00:37:58;;;;;;;9.47;7.20;;;3.30;99.90;;;;;;5004130;28;20330;-83
2022/02/28 00:40:25;;;;;;;9.10;7.57;;;3.30;99.90;;;;;;5011469;28;20218;-83
2022/02/28 00:42:53;;;;;;;11.33;7.80;;;3.30;99.90;;;;;;5005745;28;20251;-79
2022/02/28 00:45:20;;;;;;;10.27;8.23;;;3.30;99.90;;;;;;5043008;28;20201;-78
2022/02/28 00:47:46;;;;;;;9.37;7.60;;;3.20;99.90;;;;;;5060559;28;20202;-79
2022/02/28 00:50:13;;;;;;;9.73;8.07;;;3.30;99.90;;;;;;4995192;28;21066;-83
2022/02/28 00:52:41;;;;;;;10.47;7.70;;;3.20;99.90;;;;;;5004773;28;20275;-76
2022/02/28 00:55:10;;;;;;;10.60;8.20;;;3.20;99.90;;;;;;5019970;28;20240;-76
2022/02/28 00:57:36;;;;;;;10.63;8.07;;;3.30;99.90;;;;;;5008561;28;20282;-76
2022/02/28 01:00:07;;;;;;;9.00;8.00;;;3.20;99.90;;;;;;5003976;27;20692;-76
2022/02/28 01:02:34;;;;;;;10.83;8.43;;;3.30;99.90;;;;;;5010503;28;20209;-76
2022/02/28 01:05:00;;;;;;;10.23;8.33;;;3.20;99.90;;;;;;5005849;28;20206;-76
2022/02/28 01:07:27;;;;;;;10.43;8.17;;;3.20;99.90;;;;;;5011293;28;20611;-76
2022/02/28 01:09:54;;;;;;;9.70;7.80;;;3.20;99.90;;;;;;5009064;28;20210;-76
2022/02/28 01:12:21;;;;;;;10.50;7.97;;;3.20;99.90;;;;;;5017020;28;20206;-76
2022/02/28 01:14:48;;;;;;;9.93;8.17;;;3.20;99.90;;;;;;5004856;28;20212;-76
2022/02/28 01:17:16;;;;;;;11.00;8.53;;;3.30;99.90;;;;;;4997954;28;20236;-76
2022/02/28 01:19:43;;;;;;;10.50;8.13;;;3.30;99.90;;;;;;5002194;28;20205;-77
2022/02/28 01:22:11;;;;;;;12.03;8.67;;;3.30;99.90;;;;;;4991802;28;20621;-76
2022/02/28 01:24:38;;;;;;;10.73;8.23;;;3.30;99.90;;;;;;5015870;28;20203;-76
2022/02/28 01:27:05;;;;;;;10.70;8.50;;;3.30;99.90;;;;;;5017536;28;20221;-76
2022/02/28 01:29:31;;;;;;;8.80;7.90;;;3.30;99.90;;;;;;5011821;28;20214;-77
2022/02/28 01:31:58;;;;;;;11.07;8.43;;;3.20;99.90;;;;;;5007663;28;20613;-76
2022/02/28 01:34:26;;;;;;;11.10;8.63;;;3.20;99.90;;;;;;5005427;28;20209;-78
2022/02/28 01:36:53;;;;;;;10.93;7.90;;;3.20;99.90;;;;;;5010951;28;20275;-76
2022/02/28 01:39:19;;;;;;;10.13;7.47;;;3.20;99.90;;;;;;4999193;28;20283;-76
2022/02/28 01:41:46;;;;;;;10.40;8.10;;;3.20;99.90;;;;;;5004313;28;20305;-76
2022/02/28 01:44:13;;;;;;;9.93;8.03;;;3.10;99.90;;;;;;5004080;28;20228;-76
2022/02/28 01:46:40;;;;;;;11.10;8.73;;;3.20;99.90;;;;;;5002103;28;20267;-76
2022/02/28 01:49:07;;;;;;;9.63;8.10;;;3.20;99.90;;;;;;5004126;28;20306;-76
2022/02/28 01:51:37;;;;;;;9.83;7.73;;;3.20;99.90;;;;;;5005296;28;20210;-76
2022/02/28 01:54:04;;;;;;;10.37;8.10;;;3.20;99.90;;;;;;4995416;28;20210;-76
2022/02/28 01:56:31;;;;;;;10.43;8.20;;;3.20;99.90;;;;;;5003257;28;20238;-77
2022/02/28 01:58:58;;;;;;;12.80;8.70;;;3.20;99.90;;;;;;5001385;28;20237;-77
2022/02/28 02:01:24;;;;;;;11.83;9.00;;;3.10;99.90;;;;;;5016685;28;20213;-76
2022/02/28 02:03:53;;;;;;;11.60;8.70;;;3.10;99.90;;;;;;5016388;28;20258;-76
2022/02/28 02:06:20;;;;;;;11.60;8.50;;;3.10;99.90;;;;;;5005467;28;20307;-76
2022/02/28 02:08:48;;;;;;;12.30;8.50;;;3.10;99.90;;;;;;5016434;28;20217;-76
2022/02/28 02:11:15;;;;;;;11.03;8.43;;;3.10;99.90;;;;;;4991961;28;20740;-76
2022/02/28 02:13:42;;;;;;;10.83;8.50;;;3.10;99.90;;;;;;5001962;28;20290;-76
2022/02/28 02:16:08;;;;;;;12.73;9.53;;;3.10;99.90;;;;;;4990287;28;20217;-76
2022/02/28 02:18:35;;;;;;;13.60;9.07;;;3.10;99.90;;;;;;5005348;28;20237;-76
2022/02/28 02:21:12;;;;;;;11.80;8.40;;;3.00;99.90;;;;;;5001629;28;20262;-76
2022/02/28 02:23:39;;;;;;;13.77;9.17;;;3.10;99.90;;;;;;5003975;28;20678;-77
2022/02/28 02:26:05;;;;;;;12.80;8.87;;;3.10;99.90;;;;;;5001071;28;20234;-77
2022/02/28 02:28:36;;;;;;;13.57;9.63;;;3.20;99.90;;;;;;4993131;28;20214;-83
2022/02/28 02:31:06;;;;;;;15.33;9.97;;;3.20;99.90;;;;;;5005352;28;20649;-83
2022/02/28 02:33:34;;;;;;;12.30;10.00;;;3.20;99.90;;;;;;5005637;28;20213;-83
2022/02/28 02:36:06;;;;;;;14.47;10.33;;;3.10;99.90;;;;;;5003291;28;20209;-78
2022/02/28 02:38:35;;;;;;;13.07;9.30;;;3.10;99.90;;;;;;5005028;28;20241;-78
2022/02/28 02:41:08;;;;;;;16.17;10.17;;;3.10;99.90;;;;;;5003290;28;20530;-78
2022/02/28 02:43:35;;;;;;;15.57;10.07;;;3.10;99.90;;;;;;5003203;28;20213;-78
2022/02/28 02:46:05;;;;;;;14.57;9.87;;;3.10;99.90;;;;;;4992308;28;20515;-78
2022/02/28 02:48:32;;;;;;;16.17;10.23;;;3.10;99.90;;;;;;4999592;28;20213;-79
2022/02/28 02:50:59;;;;;;;14.43;10.27;;;3.20;99.90;;;;;;5004892;28;20591;-80
2022/02/28 02:53:27;;;;;;;16.10;11.20;;;3.10;99.90;;;;;;5000064;28;20221;-79
2022/02/28 02:55:54;;;;;;;14.37;10.07;;;3.20;99.90;;;;;;5003564;28;20245;-79
2022/02/28 02:58:20;;;;;;;14.47;10.40;;;3.20;99.90;;;;;;4997262;28;20262;-81
2022/02/28 03:00:49;;;;;;;15.27;10.13;;;3.10;99.90;;;;;;4993715;28;20241;-80
2022/02/28 03:03:19;;;;;;;16.37;10.33;;;3.10;99.90;;;;;;4993866;28;20259;-79
2022/02/28 03:05:46;;;;;;;15.10;11.03;;;3.10;99.90;;;;;;5002817;28;20214;-79
2022/02/28 03:08:13;;;;;;;16.50;11.00;;;3.10;99.90;;;;;;5006596;28;20248;-79
2022/02/28 03:10:41;;;;;;;17.43;11.50;;;3.10;99.90;;;;;;5001839;28;20218;-79
2022/02/28 03:13:07;;;;;;;17.50;11.10;;;3.00;99.90;;;;;;4987987;28;20206;-79
2022/02/28 03:15:34;;;;;;;15.67;10.60;;;3.10;99.90;;;;;;5001368;28;20211;-79
2022/02/28 03:18:01;;;;;;;19.87;12.20;;;3.10;99.90;;;;;;5003092;28;20229;-78
2022/02/28 03:20:27;;;;;;;17.53;11.50;;;3.10;99.90;;;;;;5002173;28;20662;-80
2022/02/28 03:22:54;;;;;;;21.60;11.70;;;3.10;99.90;;;;;;5003214;28;20213;-80
2022/02/28 03:25:21;;;;;;;17.87;11.80;;;3.00;99.90;;;;;;4993485;28;20255;-80
2022/02/28 03:27:49;;;;;;;19.90;12.27;;;3.00;99.90;;;;;;4993895;28;20256;-79
2022/02/28 03:30:18;;;;;;;21.37;12.10;;;3.00;99.90;;;;;;5004547;28;20258;-80
2022/02/28 03:32:45;;;;;;;22.53;13.00;;;3.00;99.90;;;;;;5004129;28;20233;-79
2022/02/28 03:35:12;;;;;;;22.20;12.43;;;3.00;99.90;;;;;;5004491;28;20217;-79
2022/02/28 03:37:38;;;;;;;22.53;13.93;;;3.00;99.90;;;;;;5003673;28;20213;-80
2022/02/28 03:40:06;;;;;;;18.33;12.50;;;3.00;99.90;;;;;;5005076;28;20210;-79
2022/02/28 03:42:33;;;;;;;22.50;13.60;;;2.90;99.90;;;;;;5002255;28;20245;-79
2022/02/28 03:45:01;;;;;;;26.23;13.70;;;3.00;99.90;;;;;;5002133;28;20239;-79
2022/02/28 03:47:27;;;;;;;22.90;13.17;;;3.00;99.90;;;;;;5004881;28;20210;-78
2022/02/28 03:49:54;;;;;;;22.93;13.67;;;3.00;99.90;;;;;;5003646;28;20218;-79
2022/02/28 03:52:21;;;;;;;22.70;13.30;;;3.00;99.90;;;;;;5000349;28;20210;-80
2022/02/28 03:54:47;;;;;;;24.47;13.83;;;3.00;99.90;;;;;;4999440;28;20237;-82
2022/02/28 03:57:14;;;;;;;23.83;14.10;;;3.00;99.90;;;;;;5004276;28;20291;-83
2022/02/28 03:59:41;;;;;;;24.00;13.83;;;3.00;99.90;;;;;;5002485;28;20284;-80
2022/02/28 04:02:09;;;;;;;24.90;14.53;;;2.90;99.90;;;;;;5011922;28;20214;-80
2022/02/28 04:04:36;;;;;;;26.33;14.77;;;2.90;99.90;;;;;;5002214;28;20267;-81
2022/02/28 04:07:03;;;;;;;22.47;13.00;;;2.90;99.90;;;;;;5002738;28;21613;-81
2022/02/28 04:09:29;;;;;;;23.70;14.27;;;2.90;99.90;;;;;;5021319;28;20210;-80
2022/02/28 04:11:56;;;;;;;24.37;13.80;;;2.90;99.90;;;;;;5011398;28;20875;-82
2022/02/28 04:14:23;;;;;;;24.37;12.97;;;2.90;99.90;;;;;;5006277;28;20601;-81
2022/02/28 04:16:49;;;;;;;21.67;12.87;;;2.90;99.90;;;;;;5016562;28;20620;-80
2022/02/28 04:19:17;;;;;;;22.50;12.53;;;2.90;99.90;;;;;;5005305;28;20233;-80
2022/02/28 04:21:44;;;;;;;24.90;13.63;;;2.90;99.90;;;;;;5007771;28;20217;-81
2022/02/28 04:24:10;;;;;;;23.13;13.90;;;2.90;99.90;;;;;;5014101;28;20214;-80
2022/02/28 04:26:37;;;;;;;22.23;12.77;;;2.90;99.90;;;;;;5012339;28;20216;-80
2022/02/28 04:29:04;;;;;;;21.17;12.73;;;2.90;99.90;;;;;;5007352;28;20267;-81
2022/02/28 04:31:31;;;;;;;21.20;12.10;;;2.90;99.90;;;;;;5038445;28;20270;-81
2022/02/28 04:33:57;;;;;;;21.33;11.67;;;2.90;99.90;;;;;;5031683;28;20255;-80
2022/02/28 04:36:25;;;;;;;20.67;12.57;;;2.80;99.90;;;;;;5013326;28;20206;-80
2022/02/28 04:38:52;;;;;;;23.20;13.03;;;2.80;99.90;;;;;;5013761;28;20233;-80
2022/02/28 04:41:18;;;;;;;20.83;12.43;;;2.70;99.90;;;;;;5006808;28;20209;-80
2022/02/28 04:43:45;;;;;;;22.63;12.37;;;2.80;99.90;;;;;;5013233;28;20322;-80
2022/02/28 04:46:12;;;;;;;19.73;11.23;;;2.70;99.90;;;;;;5007230;28;20251;-80
2022/02/28 04:48:39;;;;;;;22.97;12.07;;;2.70;99.90;;;;;;5007411;28;20224;-80
2022/02/28 04:51:06;;;;;;;19.77;11.43;;;2.70;99.90;;;;;;5011944;28;20228;-80
2022/02/28 04:53:34;;;;;;;19.00;11.07;;;2.80;99.90;;;;;;5004860;28;20664;-81
2022/02/28 04:56:01;;;;;;;17.83;11.47;;;2.80;99.90;;;;;;5018454;28;21000;-83
2022/02/28 04:58:27;;;;;;;17.73;10.27;;;2.70;99.90;;;;;;5006296;28;20240;-81
2022/02/28 05:00:55;;;;;;;15.40;10.20;;;2.70;99.90;;;;;;5006615;28;20265;-81
2022/02/28 05:03:21;;;;;;;21.80;11.57;;;2.70;99.90;;;;;;5008577;28;20213;-80
2022/02/28 05:05:49;;;;;;;17.30;11.13;;;2.70;99.90;;;;;;5020571;28;20585;-80
2022/02/28 05:08:15;;;;;;;20.97;11.97;;;2.70;99.90;;;;;;5006960;28;20245;-81
2022/02/28 05:10:44;;;;;;;17.87;10.67;;;2.70;99.90;;;;;;5010133;28;20218;-80
2022/02/28 05:13:10;;;;;;;18.93;11.33;;;2.70;99.90;;;;;;5089910;28;20255;-80
2022/02/28 05:15:37;;;;;;;16.13;9.90;;;2.70;99.90;;;;;;5017731;28;20201;-81
2022/02/28 05:18:04;;;;;;;17.23;10.97;;;2.70;99.90;;;;;;5005165;28;20282;-80
2022/02/28 05:20:30;;;;;;;18.17;10.83;;;2.70;99.90;;;;;;5005120;28;20237;-81
2022/02/28 05:22:57;;;;;;;16.20;10.50;;;2.70;99.90;;;;;;5005612;28;20204;-80
2022/02/28 05:25:23;;;;;;;18.43;10.10;;;2.70;99.90;;;;;;5009127;28;20217;-80
2022/02/28 05:27:51;;;;;;;15.87;11.07;;;2.70;99.90;;;;;;5006049;28;20214;-81
2022/02/28 05:30:18;;;;;;;17.60;10.63;;;2.70;99.90;;;;;;5006177;28;20664;-81
2022/02/28 05:32:45;;;;;;;18.90;10.97;;;2.70;99.90;;;;;;5012418;28;20265;-80
2022/02/28 05:35:13;;;;;;;15.00;10.17;;;2.60;99.90;;;;;;5005100;28;20202;-80
2022/02/28 05:37:40;;;;;;;17.83;11.23;;;2.70;99.90;;;;;;5012446;28;20210;-80
2022/02/28 05:40:10;;;;;;;17.93;10.40;;;2.70;99.90;;;;;;5007153;28;20307;-80
2022/02/28 05:42:38;;;;;;;19.30;10.70;;;2.70;99.90;;;;;;5012359;28;20206;-81
2022/02/28 05:45:07;;;;;;;15.87;10.53;;;2.60;99.90;;;;;;5006068;28;20214;-81
2022/02/28 05:47:34;;;;;;;17.50;10.60;;;2.60;99.90;;;;;;5007433;28;20552;-80
2022/02/28 05:50:01;;;;;;;17.30;10.83;;;2.70;99.90;;;;;;5004942;28;20214;-80
2022/02/28 05:52:27;;;;;;;15.93;10.23;;;2.70;99.90;;;;;;5009158;28;20203;-79
2022/02/28 05:54:55;;;;;;;17.83;11.03;;;2.70;99.90;;;;;;5005309;28;20711;-81
2022/02/28 05:57:22;;;;;;;18.03;10.93;;;2.70;99.90;;;;;;4987653;28;20285;-81
2022/02/28 05:59:48;;;;;;;19.17;10.60;;;2.70;99.90;;;;;;5003065;28;20238;-80
2022/02/28 06:02:17;;;;;;;18.70;11.17;;;2.70;99.90;;;;;;4997604;28;20230;-80
2022/02/28 06:04:43;;;;;;;18.80;10.77;;;2.70;99.90;;;;;;5018900;28;20213;-80
2022/02/28 06:07:10;;;;;;;15.30;10.27;;;2.60;99.90;;;;;;5010183;28;20217;-80
2022/02/28 06:09:39;;;;;;;14.27;10.00;;;2.60;99.90;;;;;;5008948;28;20213;-81
2022/02/28 06:12:07;;;;;;;18.07;10.30;;;2.60;99.90;;;;;;5014797;28;20308;-81
2022/02/28 06:14:33;;;;;;;18.17;10.90;;;2.60;99.90;;;;;;5005455;28;20213;-81
2022/02/28 06:17:00;;;;;;;17.20;11.30;;;2.60;99.90;;;;;;5022132;28;20258;-80
2022/02/28 06:19:28;;;;;;;17.07;10.90;;;2.70;99.90;;;;;;4995350;28;20230;-80
2022/02/28 06:21:55;;;;;;;16.60;10.67;;;2.70;99.90;;;;;;5026098;28;20302;-80
2022/02/28 06:24:21;;;;;;;18.00;11.07;;;2.70;99.90;;;;;;5005193;28;20210;-80
2022/02/28 06:26:49;;;;;;;15.53;10.00;;;2.70;99.90;;;;;;5017770;28;20564;-80
2022/02/28 06:29:16;;;;;;;17.67;10.97;;;2.70;99.90;;;;;;5009523;28;20287;-81
2022/02/28 06:31:44;;;;;;;19.63;11.80;;;2.60;99.90;;;;;;5085814;28;20225;-80
2022/02/28 06:34:11;;;;;;;15.77;10.57;;;2.60;99.90;;;;;;5042723;28;20590;-81
2022/02/28 06:36:40;;;;;;;18.37;11.37;;;2.50;99.90;;;;;;5011252;28;20248;-81
2022/02/28 06:39:08;;;;;;;15.73;10.80;;;2.50;99.90;;;;;;5022148;28;20747;-81
2022/02/28 06:41:34;;;;;;;17.57;10.47;;;2.50;99.90;;;;;;5005216;28;20282;-81
2022/02/28 06:44:01;;;;;;;16.87;10.40;;;2.50;99.90;;;;;;5004282;28;20545;-81
2022/02/28 06:46:28;;;;;;;14.17;10.27;;;2.40;99.90;;;;;;5015923;28;20651;-81
2022/02/28 06:48:55;;;;;;;15.90;10.83;;;2.40;99.90;;;;;;5005663;28;20205;-81
2022/02/28 06:51:21;;;;;;;15.90;10.03;;;2.50;99.90;;;;;;5010663;28;20205;-80
2022/02/28 06:53:49;;;;;;;14.83;10.20;;;2.50;99.90;;;;;;5005741;28;20725;-80
2022/02/28 06:56:16;;;;;;;14.87;10.00;;;2.50;99.90;;;;;;5004607;28;20233;-81
2022/02/28 06:58:43;;;;;;;16.77;10.50;;;2.60;99.90;;;;;;5015224;28;20277;-81
2022/02/28 07:01:11;;;;;;;15.30;10.80;;;2.60;99.90;;;;;;5022871;28;20664;-80
2022/02/28 07:03:38;;;;;;;17.97;10.97;;;2.60;99.90;;;;;;5024338;28;20205;-80
2022/02/28 07:06:08;;;;;;;16.93;10.63;;;2.50;99.90;;;;;;5035244;28;20664;-80
2022/02/28 07:08:36;;;;;;;16.97;10.93;;;2.60;99.90;;;;;;5032241;28;20214;-81
2022/02/28 07:11:07;;;;;;;12.80;9.23;;;2.60;99.90;;;;;;5016694;28;20672;-81
2022/02/28 07:13:34;;;;;;;12.10;9.30;;;2.60;99.90;;;;;;5003810;28;20469;-81
2022/02/28 07:16:00;;;;;;;13.30;9.57;;;2.60;99.90;;;;;;5064058;28;20660;-80
2022/02/28 07:18:28;;;;;;;13.20;9.47;;;2.60;99.90;;;;;;5042285;28;20216;-80
2022/02/28 07:20:55;;;;;;;13.07;10.17;;;2.70;99.90;;;;;;5009101;28;20848;-81
2022/02/28 07:23:21;;;;;;;13.67;9.40;;;2.70;99.90;;;;;;5012923;28;20209;-80
2022/02/28 07:25:48;;;;;;;15.17;10.17;;;2.80;99.90;;;;;;5099737;28;20209;-80
2022/02/28 07:28:16;;;;;;;14.00;10.33;;;2.80;99.90;;;;;;5019282;28;20232;-80
2022/02/28 07:30:43;;;;;;;15.93;10.00;;;2.80;99.90;;;;;;5013283;28;20226;-80
2022/02/28 07:33:09;;;;;;;17.17;10.70;;;2.80;99.90;;;;;;5006755;28;20205;-80
2022/02/28 07:35:38;;;;;;;17.70;11.37;;;2.80;99.90;;;;;;5002396;28;20213;-81
2022/02/28 07:38:05;;;;;;;15.87;10.87;;;2.90;99.90;;;;;;5014003;28;20206;-80
2022/02/28 07:40:32;;;;;;;15.63;11.30;;;2.90;99.90;;;;;;5006992;28;20233;-80
2022/02/28 07:42:58;;;;;;;15.33;10.80;;;3.00;99.90;;;;;;5085249;28;20210;-80
2022/02/28 07:45:26;;;;;;;15.07;10.20;;;3.00;99.90;;;;;;5035863;28;20259;-80
2022/02/28 07:47:53;;;;;;;15.20;11.07;;;3.10;99.90;;;;;;5025294;28;20205;-80
2022/02/28 07:50:20;;;;;;;18.33;12.33;;;3.20;99.90;;;;;;5017214;28;20270;-80
2022/02/28 07:52:47;;;;;;;20.07;12.27;;;3.20;99.90;;;;;;5068517;28;20201;-80
2022/02/28 07:55:14;;;;;;;17.17;11.67;;;3.20;99.90;;;;;;5011778;28;20803;-80
2022/02/28 07:57:41;;;;;;;19.47;12.57;;;3.10;99.90;;;;;;5017442;28;20735;-80
2022/02/28 08:00:09;;;;;;;17.27;12.10;;;3.20;99.90;;;;;;5018907;28;20229;-80
2022/02/28 08:02:37;;;;;;;22.03;13.27;;;3.20;99.90;;;;;;5003913;28;20251;-80
2022/02/28 08:05:04;;;;;;;21.00;13.13;;;3.20;99.90;;;;;;5013017;28;20234;-80
2022/02/28 08:07:31;;;;;;;20.67;13.73;;;3.30;99.90;;;;;;5019928;28;20727;-80
2022/02/28 08:09:59;;;;;;;19.10;12.47;;;3.40;99.90;;;;;;5007708;28;20231;-80
2022/02/28 08:12:28;;;;;;;18.87;12.70;;;3.40;99.90;;;;;;5006140;28;20214;-80
2022/02/28 08:14:57;;;;;;;20.40;13.43;;;3.50;99.90;;;;;;4990118;28;20206;-80
2022/02/28 08:17:23;;;;;;;21.47;13.03;;;3.50;99.90;;;;;;5008674;28;20553;-81
2022/02/28 08:19:51;;;;;;;19.13;13.20;;;3.50;99.90;;;;;;5011953;28;20242;-80
2022/02/28 08:22:18;;;;;;;21.33;12.93;;;3.50;99.90;;;;;;5008467;28;20267;-80
2022/02/28 08:24:45;;;;;;;19.90;13.90;;;3.50;99.90;;;;;;5018281;28;20202;-80
2022/02/28 08:27:11;;;;;;;20.77;13.90;;;3.50;99.90;;;;;;5006759;28;20213;-80
2022/02/28 08:29:38;;;;;;;22.57;13.37;;;3.50;99.90;;;;;;5008079;28;20217;-80
2022/02/28 08:32:05;;;;;;;19.50;13.67;;;3.50;99.90;;;;;;5019604;28;20258;-80
2022/02/28 08:34:32;;;;;;;22.03;14.47;;;3.60;99.90;;;;;;5015001;28;20281;-80
2022/02/28 08:37:03;;;;;;;21.57;14.80;;;3.60;99.90;;;;;;5007461;28;20209;-80
2022/02/28 08:39:32;;;;;;;22.87;14.60;;;3.60;99.90;;;;;;5019398;28;20209;-80
2022/02/28 08:41:59;;;;;;;20.90;14.60;;;3.70;99.90;;;;;;5007491;28;20278;-80
2022/02/28 08:44:25;;;;;;;23.30;14.83;;;3.90;99.90;;;;;;5013301;28;20240;-79
2022/02/28 08:46:52;;;;;;;21.93;14.67;;;3.90;99.90;;;;;;5014499;28;20672;-81
2022/02/28 08:49:19;;;;;;;24.83;15.40;;;3.80;99.90;;;;;;5016993;28;20267;-80
2022/02/28 08:51:46;;;;;;;20.67;14.47;;;4.00;99.90;;;;;;5006427;28;20217;-80
2022/02/28 08:54:15;;;;;;;21.73;14.70;;;4.00;99.90;;;;;;5008512;28;20259;-81
2022/02/28 08:56:45;;;;;;;18.53;13.80;;;4.00;99.90;;;;;;5010755;28;20233;-80
2022/02/28 08:59:11;;;;;;;22.63;14.80;;;4.20;99.90;;;;;;4990436;28;20220;-80
2022/02/28 09:01:38;;;;;;;24.97;14.43;;;4.30;99.90;;;;;;5007209;28;20261;-80
2022/02/28 09:04:05;;;;;;;21.73;14.77;;;4.40;99.90;;;;;;5005045;28;21118;-80
2022/02/28 09:06:32;;;;;;;22.63;14.33;;;4.40;99.90;;;;;;5019311;28;20587;-80
2022/02/28 09:08:58;;;;;;;22.27;14.07;;;4.50;99.90;;;;;;5013111;28;20208;-80
2022/02/28 09:11:28;;;;;;;20.50;14.00;;;4.50;99.90;;;;;;5024370;28;20216;-80
2022/02/28 09:13:54;;;;;;;21.10;14.03;;;4.60;99.90;;;;;;5017562;28;20234;-79
2022/02/28 09:16:22;;;;;;;20.97;13.47;;;4.70;99.90;;;;;;5007655;28;20263;-80
2022/02/28 09:18:49;;;;;;;19.80;13.90;;;4.80;99.90;;;;;;5017960;28;20205;-80
2022/02/28 09:21:16;;;;;;;23.57;14.70;;;4.90;99.90;;;;;;4995054;28;20641;-80
2022/02/28 09:23:42;;;;;;;20.63;15.03;;;5.00;99.90;;;;;;5012533;28;20209;-80
2022/02/28 09:26:09;;;;;;;20.97;14.23;;;5.10;99.90;;;;;;5007393;28;20305;-80
2022/02/28 09:28:37;;;;;;;20.43;13.60;;;5.20;99.90;;;;;;5009452;28;20206;-80
2022/02/28 09:31:07;;;;;;;21.13;14.07;;;5.20;99.90;;;;;;5011026;28;20304;-80
2022/02/28 09:33:37;;;;;;;21.43;15.17;;;5.40;99.90;;;;;;5005761;28;20247;-80
2022/02/28 09:36:07;;;;;;;23.03;15.60;;;5.40;99.90;;;;;;5009248;28;20198;-80
2022/02/28 09:38:34;;;;;;;19.80;15.07;;;5.30;99.90;;;;;;5021057;28;20431;-80
2022/02/28 09:41:10;;;;;;;22.83;13.23;;;5.40;99.90;;;;;;5008231;28;20280;-80
2022/02/28 09:43:39;;;;;;;18.70;13.37;;;5.40;99.90;;;;;;5005553;28;20667;-80
2022/02/28 09:46:09;;;;;;;16.80;11.87;;;5.60;99.90;;;;;;5011798;28;20209;-80
2022/02/28 09:48:36;;;;;;;17.67;12.37;;;5.70;99.90;;;;;;5005860;28;20217;-79
2022/02/28 09:51:06;;;;;;;15.70;11.53;;;5.60;99.90;;;;;;5059767;28;20198;-80
2022/02/28 09:53:33;;;;;;;15.53;11.90;;;5.70;99.90;;;;;;5019452;28;20210;-79
2022/02/28 09:56:02;;;;;;;18.40;12.50;;;5.80;99.90;;;;;;4994875;28;20761;-80
2022/02/28 09:58:35;;;;;;;17.63;12.43;;;5.90;99.90;;;;;;5009008;28;20214;-80
2022/02/28 10:01:06;;;;;;;18.90;12.93;;;5.90;99.90;;;;;;5028112;28;20337;-81
2022/02/28 10:03:35;;;;;;;17.50;11.97;;;6.00;99.90;;;;;;5010810;28;20274;-80
2022/02/28 10:06:06;;;;;;;17.23;11.80;;;6.10;99.90;;;;;;5005415;28;20201;-79
2022/02/28 10:08:40;;;;;;;17.43;11.87;;;6.30;99.90;;;;;;4998703;28;20214;-79
2022/02/28 10:11:22;;;;;;;17.30;11.00;;;6.40;99.90;;;;;;5007120;28;20217;-79
2022/02/28 10:13:50;;;;;;;14.07;10.37;;;6.50;99.90;;;;;;5007201;28;20202;-80
2022/02/28 10:16:29;;;;;;;15.30;11.07;;;6.70;99.90;;;;;;5017047;28;20661;-80
2022/02/28 10:18:56;;;;;;;16.70;11.87;;;6.80;99.90;;;;;;4988508;28;20198;-80
2022/02/28 10:21:35;;;;;;;13.97;11.40;;;6.80;99.90;;;;;;5010035;28;20229;-80
2022/02/28 10:24:02;;;;;;;15.30;11.27;;;6.80;99.90;;;;;;5014788;28;20213;-80
2022/02/28 10:26:29;;;;;;;14.33;11.03;;;7.00;99.90;;;;;;5057700;28;20198;-80
2022/02/28 10:29:04;;;;;;;14.80;11.00;;;7.00;99.90;;;;;;5055948;28;20241;-80
2022/02/28 10:31:35;;;;;;;16.80;10.50;;;7.00;99.90;;;;;;5005427;28;20229;-79
2022/02/28 10:34:13;;;;;;;15.20;11.00;;;7.00;99.90;;;;;;5008470;28;20220;-80
2022/02/28 10:36:40;;;;;;;16.03;10.93;;;7.00;99.90;;;;;;5005582;28;20205;-79
2022/02/28 10:39:10;;;;;;;15.97;11.73;;;6.80;99.90;;;;;;5005562;28;20218;-79
2022/02/28 10:41:38;;;;;;;18.03;11.97;;;6.90;99.90;;;;;;5004241;28;20265;-80
2022/02/28 10:44:08;;;;;;;14.47;10.07;;;6.90;99.90;;;;;;5005049;28;20210;-80
2022/02/28 10:46:42;;;;;;;12.33;9.40;;;7.00;99.90;;;;;;5003979;28;20656;-80
2022/02/28 10:49:15;;;;;;;11.40;9.20;;;7.10;99.90;;;;;;5009531;28;20209;-80
2022/02/28 10:51:50;;;;;;;11.10;8.53;;;7.30;99.90;;;;;;5002620;28;20212;-79
2022/02/28 10:54:21;;;;;;;11.97;9.27;;;7.40;99.90;;;;;;5008174;28;20209;-80
2022/02/28 10:56:53;;;;;;;16.00;10.40;;;7.40;99.90;;;;;;5008572;28;20617;-80
2022/02/28 10:59:22;;;;;;;12.63;9.60;;;7.50;99.90;;;;;;5007255;28;20697;-79
2022/02/28 11:01:50;;;;;;;12.70;10.23;;;7.70;99.90;;;;;;5017400;28;20233;-79
2022/02/28 11:04:36;;;;;;;13.83;10.40;;;7.70;99.90;;;;;;5007517;28;20218;-79
2022/02/28 11:07:04;;;;;;;12.50;9.57;;;7.70;99.90;;;;;;5009177;28;20286;-80
2022/02/28 11:09:35;;;;;;;12.27;9.17;;;7.80;99.90;;;;;;5008305;28;20259;-79
2022/02/28 11:12:25;;;;;;;13.30;9.03;;;7.90;99.90;;;;;;5099181;28;20212;-79
2022/02/28 11:14:53;;;;;;;13.33;8.87;;;8.00;99.90;;;;;;5012466;28;20213;-80
2022/02/28 11:17:24;;;;;;;11.87;9.67;;;8.10;99.90;;;;;;5013264;28;20646;-79
2022/02/28 11:19:52;;;;;;;10.67;9.33;;;8.30;99.90;;;;;;5014329;28;20202;-79
2022/02/28 11:22:19;;;;;;;13.27;10.40;;;8.30;99.90;;;;;;5018293;28;20267;-79
2022/02/28 11:24:47;;;;;;;11.57;9.37;;;8.30;99.90;;;;;;5009850;28;20240;-79
2022/02/28 11:27:14;;;;;;;11.93;9.90;;;8.40;99.90;;;;;;5013510;28;20216;-79
2022/02/28 11:29:42;;;;;;;10.93;8.53;;;8.50;99.90;;;;;;5007967;28;20235;-79
2022/02/28 11:32:09;;;;;;;10.03;7.90;;;8.50;99.90;;;;;;5015223;28;20237;-79
2022/02/28 11:34:37;;;;;;;9.63;7.73;;;8.60;99.90;;;;;;5023001;28;20201;-79
2022/02/28 11:37:07;;;;;;;10.03;8.50;;;8.60;99.90;;;;;;5007536;28;20206;-80
2022/02/28 11:39:37;;;;;;;10.33;8.63;;;8.80;99.90;;;;;;5007802;28;20210;-79
2022/02/28 11:42:09;;;;;;;11.47;8.57;;;8.90;99.90;;;;;;5020680;28;20602;-79
2022/02/28 11:44:37;;;;;;;10.07;8.30;;;8.90;99.90;;;;;;5009946;28;20218;-79
2022/02/28 11:47:13;;;;;;;12.37;9.47;;;8.90;99.90;;;;;;5006631;28;20210;-78
2022/02/28 11:49:43;;;;;;;13.30;10.23;;;9.00;99.90;;;;;;5007190;28;20213;-79
2022/02/28 11:52:33;;;;;;;14.73;9.90;;;9.10;99.90;;;;;;4990808;28;20229;-79
2022/02/28 11:55:01;;;;;;;12.60;9.77;;;9.30;99.90;;;;;;5046450;28;20279;-79
2022/02/28 11:57:53;;;;;;;10.57;9.33;;;9.30;99.90;;;;;;5053231;28;20217;-79
2022/02/28 12:00:21;;;;;;;10.20;8.53;;;9.40;99.90;;;;;;5009566;28;20217;-79
2022/02/28 12:02:48;;;;;;;9.00;8.10;;;9.60;99.90;;;;;;5006483;28;20218;-79
2022/02/28 12:05:38;;;;;;;10.87;8.50;;;9.60;99.90;;;;;;5093165;28;20276;-78
2022/02/28 12:08:05;;;;;;;8.43;7.47;;;9.80;99.90;;;;;;5023903;28;20208;-79
2022/02/28 12:10:32;;;;;;;9.70;8.40;;;9.80;99.90;;;;;;5004956;28;20259;-79
2022/02/28 12:13:00;;;;;;;11.03;8.60;;;9.60;99.90;;;;;;5008210;28;20201;-79
2022/02/28 12:15:28;;;;;;;10.50;7.53;;;9.40;99.90;;;;;;5006453;28;20212;-79
2022/02/28 12:18:03;;;;;;;9.17;7.20;;;9.50;99.90;;;;;;5009186;28;20213;-78
2022/02/28 12:20:32;;;;;;;9.23;6.37;;;9.80;99.90;;;;;;5008509;28;20209;-79
2022/02/28 12:23:21;;;;;;;8.13;6.57;;;10.00;99.90;;;;;;5007452;28;20259;-79
2022/02/28 12:26:00;;;;;;;8.47;6.97;;;10.20;99.90;;;;;;5015360;28;20216;-79
2022/02/28 12:28:30;;;;;;;8.10;5.87;;;10.30;99.90;;;;;;5023002;28;20201;-78
2022/02/28 12:31:02;;;;;;;8.53;6.27;;;10.20;99.90;;;;;;5008899;28;20233;-79
2022/02/28 12:34:01;;;;;;;6.43;5.80;;;10.10;99.90;;;;;;5014282;28;20608;-79
2022/02/28 12:36:30;;;;;;;7.00;5.90;;;10.00;99.90;;;;;;4990231;28;20209;-79
2022/02/28 12:39:00;;;;;;;6.60;6.00;;;10.20;99.90;;;;;;5012386;28;20240;-79
2022/02/28 12:41:29;;;;;;;6.60;5.57;;;10.40;99.90;;;;;;5012598;28;20294;-79
2022/02/28 12:43:57;;;;;;;7.77;5.60;;;10.20;99.50;;;;;;5011876;28;20284;-79
2022/02/28 12:46:27;;;;;;;5.80;5.00;;;10.00;99.40;;;;;;5005230;28;20686;-79